sensor_id;sensor_type;location;lat;lon;timestamp;P1;durP1;ratioP1;P2;durP2;ratioP2
65896;SDS011;52677;50.898;10.854;2024-02-21T00:00:53;10.20;;;4.50;;
65896;SDS011;52677;50.898;10.854;2024-02-21T00:02:53;14.20;;;5.32;;
65896;SDS011;52677;50.898;10.854;2024-02-21T00:04:54;7.43;;;4.10;;
65896;SDS011;52677;50.898;10.854;2024-02-21T00:06:54;6.95;;;4.15;;
65896;SDS011;52677;50.898;10.854;2024-02-21T00:08:54;13.35;;;4.43;;
65896;SDS011;52677;50.898;10.854;2024-02-21T00:10:55;11.95;;;4.32;;
65896;SDS011;52677;50.898;10.854;2024-02-21T00:12:55;6.60;;;3.17;;
65896;SDS011;52677;50.898;10.854;2024-02-21T00:14:55;9.85;;;3.72;;
65896;SDS011;52677;50.898;10.854;2024-02-21T00:16:56;10.88;;;4.45;;
65896;SDS011;52677;50.898;10.854;2024-02-21T00:18:56;8.90;;;4.40;;
65896;SDS011;52677;50.898;10.854;2024-02-21T00:20:56;9.38;;;4.13;;
65896;SDS011;52677;50.898;10.854;2024-02-21T00:22:57;10.18;;;4.05;;
65896;SDS011;52677;50.898;10.854;2024-02-21T00:24:57;12.00;;;3.78;;
65896;SDS011;52677;50.898;10.854;2024-02-21T00:26:58;10.02;;;4.57;;
65896;SDS011;52677;50.898;10.854;2024-02-21T00:28:58;8.45;;;4.15;;
65896;SDS011;52677;50.898;10.854;2024-02-21T00:30:58;12.77;;;4.10;;
65896;SDS011;52677;50.898;10.854;2024-02-21T00:32:59;9.07;;;3.88;;
65896;SDS011;52677;50.898;10.854;2024-02-21T00:34:59;10.15;;;3.95;;
65896;SDS011;52677;50.898;10.854;2024-02-21T00:37:00;12.00;;;4.90;;
65896;SDS011;52677;50.898;10.854;2024-02-21T00:39:00;16.88;;;3.80;;
65896;SDS011;52677;50.898;10.854;2024-02-21T00:41:00;12.20;;;3.83;;
65896;SDS011;52677;50.898;10.854;2024-02-21T00:43:01;12.27;;;3.85;;
65896;SDS011;52677;50.898;10.854;2024-02-21T00:45:01;8.38;;;3.75;;
65896;SDS011;52677;50.898;10.854;2024-02-21T00:47:01;10.70;;;3.88;;
65896;SDS011;52677;50.898;10.854;2024-02-21T00:49:02;9.05;;;3.42;;
65896;SDS011;52677;50.898;10.854;2024-02-21T00:51:02;9.80;;;3.40;;
65896;SDS011;52677;50.898;10.854;2024-02-21T00:53:03;11.20;;;4.05;;
65896;SDS011;52677;50.898;10.854;2024-02-21T00:55:04;7.00;;;3.97;;
65896;SDS011;52677;50.898;10.854;2024-02-21T00:57:04;10.88;;;3.95;;
65896;SDS011;52677;50.898;10.854;2024-02-21T00:59:05;13.95;;;4.75;;
65896;SDS011;52677;50.898;10.854;2024-02-21T01:01:05;11.18;;;3.85;;
65896;SDS011;52677;50.898;10.854;2024-02-21T01:03:05;9.48;;;3.33;;
65896;SDS011;52677;50.898;10.854;2024-02-21T01:05:06;11.70;;;4.22;;
65896;SDS011;52677;50.898;10.854;2024-02-21T01:07:07;5.85;;;3.53;;
65896;SDS011;52677;50.898;10.854;2024-02-21T01:09:07;9.10;;;3.53;;
65896;SDS011;52677;50.898;10.854;2024-02-21T01:11:07;10.02;;;4.68;;
65896;SDS011;52677;50.898;10.854;2024-02-21T01:13:08;12.68;;;3.78;;
65896;SDS011;52677;50.898;10.854;2024-02-21T01:15:08;12.35;;;3.97;;
65896;SDS011;52677;50.898;10.854;2024-02-21T01:17:09;7.43;;;3.22;;
65896;SDS011;52677;50.898;10.854;2024-02-21T01:19:09;9.40;;;3.70;;
65896;SDS011;52677;50.898;10.854;2024-02-21T01:21:09;12.20;;;4.03;;
65896;SDS011;52677;50.898;10.854;2024-02-21T01:23:10;11.95;;;3.90;;
65896;SDS011;52677;50.898;10.854;2024-02-21T01:25:10;8.23;;;3.80;;
65896;SDS011;52677;50.898;10.854;2024-02-21T01:27:10;8.95;;;3.75;;
65896;SDS011;52677;50.898;10.854;2024-02-21T01:29:11;6.30;;;3.83;;
65896;SDS011;52677;50.898;10.854;2024-02-21T01:31:11;11.38;;;4.05;;
65896;SDS011;52677;50.898;10.854;2024-02-21T01:33:13;8.45;;;3.70;;
65896;SDS011;52677;50.898;10.854;2024-02-21T01:35:13;7.97;;;4.20;;
65896;SDS011;52677;50.898;10.854;2024-02-21T01:37:13;10.23;;;3.90;;
65896;SDS011;52677;50.898;10.854;2024-02-21T01:39:13;9.82;;;4.30;;
65896;SDS011;52677;50.898;10.854;2024-02-21T01:41:14;10.48;;;4.10;;
65896;SDS011;52677;50.898;10.854;2024-02-21T01:43:18;7.68;;;4.05;;
65896;SDS011;52677;50.898;10.854;2024-02-21T01:45:20;9.77;;;4.47;;
65896;SDS011;52677;50.898;10.854;2024-02-21T01:47:20;9.27;;;4.38;;
65896;SDS011;52677;50.898;10.854;2024-02-21T01:49:21;12.55;;;4.28;;
65896;SDS011;52677;50.898;10.854;2024-02-21T01:51:22;11.05;;;3.38;;
65896;SDS011;52677;50.898;10.854;2024-02-21T01:53:25;7.47;;;3.95;;
65896;SDS011;52677;50.898;10.854;2024-02-21T01:55:29;8.50;;;3.55;;
65896;SDS011;52677;50.898;10.854;2024-02-21T01:57:29;10.20;;;3.60;;
65896;SDS011;52677;50.898;10.854;2024-02-21T01:59:30;13.07;;;4.28;;
65896;SDS011;52677;50.898;10.854;2024-02-21T02:01:30;10.25;;;3.92;;
65896;SDS011;52677;50.898;10.854;2024-02-21T02:03:31;11.07;;;4.50;;
65896;SDS011;52677;50.898;10.854;2024-02-21T02:05:31;8.45;;;3.88;;
65896;SDS011;52677;50.898;10.854;2024-02-21T02:07:32;12.07;;;4.78;;
65896;SDS011;52677;50.898;10.854;2024-02-21T02:09:32;8.43;;;3.72;;
65896;SDS011;52677;50.898;10.854;2024-02-21T02:11:33;9.43;;;3.78;;
65896;SDS011;52677;50.898;10.854;2024-02-21T02:13:33;8.02;;;3.95;;
65896;SDS011;52677;50.898;10.854;2024-02-21T02:15:40;8.90;;;4.00;;
65896;SDS011;52677;50.898;10.854;2024-02-21T02:17:47;8.63;;;4.03;;
65896;SDS011;52677;50.898;10.854;2024-02-21T02:19:48;13.18;;;4.03;;
65896;SDS011;52677;50.898;10.854;2024-02-21T02:21:53;10.93;;;3.88;;
65896;SDS011;52677;50.898;10.854;2024-02-21T02:23:59;8.75;;;3.67;;
65896;SDS011;52677;50.898;10.854;2024-02-21T02:25:59;13.48;;;5.60;;
65896;SDS011;52677;50.898;10.854;2024-02-21T02:28:03;12.40;;;4.03;;
65896;SDS011;52677;50.898;10.854;2024-02-21T02:30:05;9.77;;;4.03;;
65896;SDS011;52677;50.898;10.854;2024-02-21T02:32:06;7.15;;;3.80;;
65896;SDS011;52677;50.898;10.854;2024-02-21T02:34:06;9.18;;;4.63;;
65896;SDS011;52677;50.898;10.854;2024-02-21T02:36:06;7.63;;;4.05;;
65896;SDS011;52677;50.898;10.854;2024-02-21T02:38:07;9.70;;;4.20;;
65896;SDS011;52677;50.898;10.854;2024-02-21T02:40:07;9.65;;;3.42;;
65896;SDS011;52677;50.898;10.854;2024-02-21T02:42:08;11.80;;;3.97;;
65896;SDS011;52677;50.898;10.854;2024-02-21T02:44:08;13.30;;;4.35;;
65896;SDS011;52677;50.898;10.854;2024-02-21T02:46:09;12.18;;;4.53;;
65896;SDS011;52677;50.898;10.854;2024-02-21T02:48:09;8.73;;;4.28;;
65896;SDS011;52677;50.898;10.854;2024-02-21T02:50:09;13.52;;;4.22;;
65896;SDS011;52677;50.898;10.854;2024-02-21T02:52:10;14.38;;;5.03;;
65896;SDS011;52677;50.898;10.854;2024-02-21T02:54:10;11.10;;;4.03;;
65896;SDS011;52677;50.898;10.854;2024-02-21T02:56:15;7.00;;;3.83;;
65896;SDS011;52677;50.898;10.854;2024-02-21T02:58:15;9.05;;;4.13;;
65896;SDS011;52677;50.898;10.854;2024-02-21T03:00:16;9.82;;;4.53;;
65896;SDS011;52677;50.898;10.854;2024-02-21T03:02:17;14.65;;;4.75;;
65896;SDS011;52677;50.898;10.854;2024-02-21T03:04:17;9.68;;;4.38;;
65896;SDS011;52677;50.898;10.854;2024-02-21T03:06:18;7.55;;;3.60;;
65896;SDS011;52677;50.898;10.854;2024-02-21T03:08:18;10.25;;;4.07;;
65896;SDS011;52677;50.898;10.854;2024-02-21T03:10:18;11.98;;;4.60;;
65896;SDS011;52677;50.898;10.854;2024-02-21T03:12:19;8.93;;;4.03;;
65896;SDS011;52677;50.898;10.854;2024-02-21T03:14:24;8.65;;;4.15;;
65896;SDS011;52677;50.898;10.854;2024-02-21T03:16:25;11.45;;;4.43;;
65896;SDS011;52677;50.898;10.854;2024-02-21T03:18:25;11.73;;;4.45;;
65896;SDS011;52677;50.898;10.854;2024-02-21T03:20:26;8.38;;;3.70;;
65896;SDS011;52677;50.898;10.854;2024-02-21T03:22:26;13.43;;;4.70;;
65896;SDS011;52677;50.898;10.854;2024-02-21T03:24:27;12.13;;;4.82;;
65896;SDS011;52677;50.898;10.854;2024-02-21T03:26:27;8.68;;;4.25;;
65896;SDS011;52677;50.898;10.854;2024-02-21T03:28:27;7.70;;;4.03;;
65896;SDS011;52677;50.898;10.854;2024-02-21T03:30:28;11.77;;;4.30;;
65896;SDS011;52677;50.898;10.854;2024-02-21T03:32:28;7.95;;;4.30;;
65896;SDS011;52677;50.898;10.854;2024-02-21T03:34:29;10.63;;;4.47;;
65896;SDS011;52677;50.898;10.854;2024-02-21T03:36:29;10.35;;;4.38;;
65896;SDS011;52677;50.898;10.854;2024-02-21T03:38:29;9.60;;;4.95;;
65896;SDS011;52677;50.898;10.854;2024-02-21T03:40:30;12.27;;;4.30;;
65896;SDS011;52677;50.898;10.854;2024-02-21T03:42:30;13.52;;;4.93;;
65896;SDS011;52677;50.898;10.854;2024-02-21T03:44:31;12.48;;;4.30;;
65896;SDS011;52677;50.898;10.854;2024-02-21T03:46:32;6.75;;;4.05;;
65896;SDS011;52677;50.898;10.854;2024-02-21T03:48:32;8.35;;;3.85;;
65896;SDS011;52677;50.898;10.854;2024-02-21T03:50:32;11.10;;;3.97;;
65896;SDS011;52677;50.898;10.854;2024-02-21T03:52:33;12.05;;;4.35;;
65896;SDS011;52677;50.898;10.854;2024-02-21T03:54:33;11.90;;;4.22;;
65896;SDS011;52677;50.898;10.854;2024-02-21T03:56:37;11.88;;;4.05;;
65896;SDS011;52677;50.898;10.854;2024-02-21T03:58:38;11.27;;;4.20;;
65896;SDS011;52677;50.898;10.854;2024-02-21T04:00:38;12.18;;;4.78;;
65896;SDS011;52677;50.898;10.854;2024-02-21T04:02:39;11.60;;;4.03;;
65896;SDS011;52677;50.898;10.854;2024-02-21T04:04:42;10.23;;;4.57;;
65896;SDS011;52677;50.898;10.854;2024-02-21T04:06:48;10.07;;;4.78;;
65896;SDS011;52677;50.898;10.854;2024-02-21T04:08:49;13.45;;;4.57;;
65896;SDS011;52677;50.898;10.854;2024-02-21T04:10:50;10.23;;;4.25;;
65896;SDS011;52677;50.898;10.854;2024-02-21T04:12:50;10.98;;;4.32;;
65896;SDS011;52677;50.898;10.854;2024-02-21T04:14:50;7.68;;;4.05;;
65896;SDS011;52677;50.898;10.854;2024-02-21T04:16:51;10.38;;;4.30;;
65896;SDS011;52677;50.898;10.854;2024-02-21T04:18:51;12.98;;;4.50;;
65896;SDS011;52677;50.898;10.854;2024-02-21T04:20:52;8.55;;;4.50;;
65896;SDS011;52677;50.898;10.854;2024-02-21T04:22:52;10.68;;;4.50;;
65896;SDS011;52677;50.898;10.854;2024-02-21T04:24:52;7.30;;;4.35;;
65896;SDS011;52677;50.898;10.854;2024-02-21T04:26:53;9.32;;;4.18;;
65896;SDS011;52677;50.898;10.854;2024-02-21T04:28:53;9.60;;;4.53;;
65896;SDS011;52677;50.898;10.854;2024-02-21T04:30:53;7.05;;;3.67;;
65896;SDS011;52677;50.898;10.854;2024-02-21T04:32:54;8.32;;;3.72;;
65896;SDS011;52677;50.898;10.854;2024-02-21T04:34:54;7.32;;;3.28;;
65896;SDS011;52677;50.898;10.854;2024-02-21T04:36:55;9.13;;;3.88;;
65896;SDS011;52677;50.898;10.854;2024-02-21T04:38:55;11.38;;;4.55;;
65896;SDS011;52677;50.898;10.854;2024-02-21T04:40:55;11.73;;;4.22;;
65896;SDS011;52677;50.898;10.854;2024-02-21T04:44:58;9.73;;;4.18;;
65896;SDS011;52677;50.898;10.854;2024-02-21T04:46:58;8.43;;;4.07;;
65896;SDS011;52677;50.898;10.854;2024-02-21T04:48:59;8.48;;;4.32;;
65896;SDS011;52677;50.898;10.854;2024-02-21T04:50:59;9.82;;;4.97;;
65896;SDS011;52677;50.898;10.854;2024-02-21T04:52:59;11.45;;;4.20;;
65896;SDS011;52677;50.898;10.854;2024-02-21T04:55:00;9.60;;;4.63;;
65896;SDS011;52677;50.898;10.854;2024-02-21T04:57:00;16.65;;;4.97;;
65896;SDS011;52677;50.898;10.854;2024-02-21T04:59:00;11.05;;;4.53;;
65896;SDS011;52677;50.898;10.854;2024-02-21T05:01:01;12.32;;;5.32;;
65896;SDS011;52677;50.898;10.854;2024-02-21T05:03:01;13.20;;;4.60;;
65896;SDS011;52677;50.898;10.854;2024-02-21T05:05:02;9.05;;;4.57;;
65896;SDS011;52677;50.898;10.854;2024-02-21T05:07:02;9.45;;;4.72;;
65896;SDS011;52677;50.898;10.854;2024-02-21T05:09:03;10.02;;;4.45;;
65896;SDS011;52677;50.898;10.854;2024-02-21T05:11:03;10.50;;;5.00;;
65896;SDS011;52677;50.898;10.854;2024-02-21T05:13:03;10.82;;;4.47;;
65896;SDS011;52677;50.898;10.854;2024-02-21T05:15:04;8.32;;;4.47;;
65896;SDS011;52677;50.898;10.854;2024-02-21T05:17:05;12.30;;;4.78;;
65896;SDS011;52677;50.898;10.854;2024-02-21T05:19:05;9.00;;;4.65;;
65896;SDS011;52677;50.898;10.854;2024-02-21T05:21:06;8.38;;;4.43;;
65896;SDS011;52677;50.898;10.854;2024-02-21T05:23:06;12.07;;;4.45;;
65896;SDS011;52677;50.898;10.854;2024-02-21T05:25:07;8.30;;;4.95;;
65896;SDS011;52677;50.898;10.854;2024-02-21T05:27:07;9.48;;;4.68;;
65896;SDS011;52677;50.898;10.854;2024-02-21T05:29:08;10.27;;;5.28;;
65896;SDS011;52677;50.898;10.854;2024-02-21T05:31:08;8.35;;;5.10;;
65896;SDS011;52677;50.898;10.854;2024-02-21T05:33:08;12.27;;;4.68;;
65896;SDS011;52677;50.898;10.854;2024-02-21T05:35:09;10.63;;;4.25;;
65896;SDS011;52677;50.898;10.854;2024-02-21T05:37:09;10.80;;;5.00;;
65896;SDS011;52677;50.898;10.854;2024-02-21T05:39:09;7.22;;;4.57;;
65896;SDS011;52677;50.898;10.854;2024-02-21T05:41:10;11.93;;;4.93;;
65896;SDS011;52677;50.898;10.854;2024-02-21T05:43:10;8.52;;;4.40;;
65896;SDS011;52677;50.898;10.854;2024-02-21T05:45:11;12.93;;;4.72;;
65896;SDS011;52677;50.898;10.854;2024-02-21T05:47:11;11.77;;;6.32;;
65896;SDS011;52677;50.898;10.854;2024-02-21T05:49:15;7.07;;;4.85;;
65896;SDS011;52677;50.898;10.854;2024-02-21T05:51:15;11.35;;;5.55;;
65896;SDS011;52677;50.898;10.854;2024-02-21T05:53:15;14.32;;;5.70;;
65896;SDS011;52677;50.898;10.854;2024-02-21T05:55:16;12.73;;;5.78;;
65896;SDS011;52677;50.898;10.854;2024-02-21T05:57:19;11.20;;;6.05;;
65896;SDS011;52677;50.898;10.854;2024-02-21T05:59:20;13.70;;;6.30;;
65896;SDS011;52677;50.898;10.854;2024-02-21T06:01:20;10.95;;;6.30;;
65896;SDS011;52677;50.898;10.854;2024-02-21T06:03:24;13.00;;;5.70;;
65896;SDS011;52677;50.898;10.854;2024-02-21T06:05:24;10.68;;;4.50;;
65896;SDS011;52677;50.898;10.854;2024-02-21T06:07:24;10.65;;;4.70;;
65896;SDS011;52677;50.898;10.854;2024-02-21T06:09:25;12.85;;;5.13;;
65896;SDS011;52677;50.898;10.854;2024-02-21T06:11:25;12.18;;;5.32;;
65896;SDS011;52677;50.898;10.854;2024-02-21T06:13:26;12.95;;;4.28;;
65896;SDS011;52677;50.898;10.854;2024-02-21T06:15:26;8.18;;;4.20;;
65896;SDS011;52677;50.898;10.854;2024-02-21T06:17:27;11.88;;;4.00;;
65896;SDS011;52677;50.898;10.854;2024-02-21T06:19:27;10.25;;;4.03;;
65896;SDS011;52677;50.898;10.854;2024-02-21T06:21:31;9.00;;;4.13;;
65896;SDS011;52677;50.898;10.854;2024-02-21T06:23:31;8.43;;;3.53;;
65896;SDS011;52677;50.898;10.854;2024-02-21T06:25:31;9.80;;;4.00;;
65896;SDS011;52677;50.898;10.854;2024-02-21T06:27:32;12.52;;;5.05;;
65896;SDS011;52677;50.898;10.854;2024-02-21T06:29:32;10.00;;;4.00;;
65896;SDS011;52677;50.898;10.854;2024-02-21T06:31:34;8.63;;;4.22;;
65896;SDS011;52677;50.898;10.854;2024-02-21T06:33:35;7.05;;;3.92;;
65896;SDS011;52677;50.898;10.854;2024-02-21T06:35:35;9.20;;;3.95;;
65896;SDS011;52677;50.898;10.854;2024-02-21T06:37:36;8.10;;;4.00;;
65896;SDS011;52677;50.898;10.854;2024-02-21T06:39:37;9.85;;;4.47;;
65896;SDS011;52677;50.898;10.854;2024-02-21T06:41:38;10.27;;;4.07;;
65896;SDS011;52677;50.898;10.854;2024-02-21T06:43:38;9.02;;;4.55;;
65896;SDS011;52677;50.898;10.854;2024-02-21T06:45:39;9.43;;;3.97;;
65896;SDS011;52677;50.898;10.854;2024-02-21T06:47:39;11.68;;;4.35;;
65896;SDS011;52677;50.898;10.854;2024-02-21T06:49:39;8.95;;;4.45;;
65896;SDS011;52677;50.898;10.854;2024-02-21T06:51:40;12.20;;;5.45;;
65896;SDS011;52677;50.898;10.854;2024-02-21T06:53:40;7.60;;;3.97;;
65896;SDS011;52677;50.898;10.854;2024-02-21T06:55:40;12.63;;;4.50;;
65896;SDS011;52677;50.898;10.854;2024-02-21T06:57:40;9.32;;;4.28;;
65896;SDS011;52677;50.898;10.854;2024-02-21T06:59:41;10.82;;;4.47;;
65896;SDS011;52677;50.898;10.854;2024-02-21T07:01:46;8.30;;;4.50;;
65896;SDS011;52677;50.898;10.854;2024-02-21T07:03:48;11.15;;;5.45;;
65896;SDS011;52677;50.898;10.854;2024-02-21T07:05:49;9.50;;;5.45;;
65896;SDS011;52677;50.898;10.854;2024-02-21T07:07:49;9.82;;;4.82;;
65896;SDS011;52677;50.898;10.854;2024-02-21T07:09:49;8.35;;;4.68;;
65896;SDS011;52677;50.898;10.854;2024-02-21T07:11:50;17.48;;;7.45;;
65896;SDS011;52677;50.898;10.854;2024-02-21T07:13:50;29.58;;;12.48;;
65896;SDS011;52677;50.898;10.854;2024-02-21T07:15:52;13.98;;;7.95;;
65896;SDS011;52677;50.898;10.854;2024-02-21T07:17:52;10.38;;;5.88;;
65896;SDS011;52677;50.898;10.854;2024-02-21T07:19:53;11.02;;;4.65;;
65896;SDS011;52677;50.898;10.854;2024-02-21T07:21:56;12.48;;;5.60;;
65896;SDS011;52677;50.898;10.854;2024-02-21T07:23:57;8.48;;;5.20;;
65896;SDS011;52677;50.898;10.854;2024-02-21T07:25:57;11.93;;;5.63;;
65896;SDS011;52677;50.898;10.854;2024-02-21T07:27:58;10.75;;;5.28;;
65896;SDS011;52677;50.898;10.854;2024-02-21T07:29:58;12.63;;;5.10;;
65896;SDS011;52677;50.898;10.854;2024-02-21T07:31:58;12.63;;;5.07;;
65896;SDS011;52677;50.898;10.854;2024-02-21T07:33:59;8.70;;;4.82;;
65896;SDS011;52677;50.898;10.854;2024-02-21T07:35:59;10.68;;;4.90;;
65896;SDS011;52677;50.898;10.854;2024-02-21T07:37:59;11.73;;;5.55;;
65896;SDS011;52677;50.898;10.854;2024-02-21T07:40:00;9.57;;;5.40;;
65896;SDS011;52677;50.898;10.854;2024-02-21T07:42:00;11.75;;;5.07;;
65896;SDS011;52677;50.898;10.854;2024-02-21T07:44:00;13.75;;;6.05;;
65896;SDS011;52677;50.898;10.854;2024-02-21T07:46:01;11.20;;;6.00;;
65896;SDS011;52677;50.898;10.854;2024-02-21T07:48:01;11.77;;;5.85;;
65896;SDS011;52677;50.898;10.854;2024-02-21T07:50:02;8.35;;;4.95;;
65896;SDS011;52677;50.898;10.854;2024-02-21T07:52:04;10.50;;;5.22;;
65896;SDS011;52677;50.898;10.854;2024-02-21T07:54:04;12.20;;;5.32;;
65896;SDS011;52677;50.898;10.854;2024-02-21T07:56:05;12.65;;;5.63;;
65896;SDS011;52677;50.898;10.854;2024-02-21T07:58:05;11.07;;;4.90;;
65896;SDS011;52677;50.898;10.854;2024-02-21T08:00:06;10.98;;;4.60;;
65896;SDS011;52677;50.898;10.854;2024-02-21T08:02:09;9.93;;;5.38;;
65896;SDS011;52677;50.898;10.854;2024-02-21T08:04:10;13.82;;;5.32;;
65896;SDS011;52677;50.898;10.854;2024-02-21T08:06:12;9.85;;;5.88;;
65896;SDS011;52677;50.898;10.854;2024-02-21T08:08:13;8.40;;;4.85;;
65896;SDS011;52677;50.898;10.854;2024-02-21T08:10:18;10.32;;;5.32;;
65896;SDS011;52677;50.898;10.854;2024-02-21T08:12:18;11.40;;;5.50;;
65896;SDS011;52677;50.898;10.854;2024-02-21T08:14:18;9.10;;;4.63;;
65896;SDS011;52677;50.898;10.854;2024-02-21T08:16:19;8.43;;;5.03;;
65896;SDS011;52677;50.898;10.854;2024-02-21T08:18:19;13.50;;;5.10;;
65896;SDS011;52677;50.898;10.854;2024-02-21T08:20:20;12.52;;;5.13;;
65896;SDS011;52677;50.898;10.854;2024-02-21T08:22:20;13.77;;;5.47;;
65896;SDS011;52677;50.898;10.854;2024-02-21T08:24:21;12.05;;;5.82;;
65896;SDS011;52677;50.898;10.854;2024-02-21T08:26:22;9.48;;;6.00;;
65896;SDS011;52677;50.898;10.854;2024-02-21T08:28:23;10.85;;;4.70;;
65896;SDS011;52677;50.898;10.854;2024-02-21T08:30:23;9.23;;;4.43;;
65896;SDS011;52677;50.898;10.854;2024-02-21T08:32:24;8.15;;;4.78;;
65896;SDS011;52677;50.898;10.854;2024-02-21T08:34:24;10.25;;;5.15;;
65896;SDS011;52677;50.898;10.854;2024-02-21T08:36:24;10.35;;;4.50;;
65896;SDS011;52677;50.898;10.854;2024-02-21T08:38:25;11.63;;;5.60;;
65896;SDS011;52677;50.898;10.854;2024-02-21T08:40:25;7.07;;;4.57;;
65896;SDS011;52677;50.898;10.854;2024-02-21T08:42:25;9.05;;;4.93;;
65896;SDS011;52677;50.898;10.854;2024-02-21T08:44:27;8.48;;;4.18;;
65896;SDS011;52677;50.898;10.854;2024-02-21T08:46:28;8.55;;;4.97;;
65896;SDS011;52677;50.898;10.854;2024-02-21T08:48:28;12.50;;;4.57;;
65896;SDS011;52677;50.898;10.854;2024-02-21T08:50:28;9.00;;;4.55;;
65896;SDS011;52677;50.898;10.854;2024-02-21T08:52:29;10.38;;;4.60;;
65896;SDS011;52677;50.898;10.854;2024-02-21T08:54:29;8.82;;;4.13;;
65896;SDS011;52677;50.898;10.854;2024-02-21T08:56:30;8.13;;;4.35;;
65896;SDS011;52677;50.898;10.854;2024-02-21T08:58:31;8.70;;;4.30;;
65896;SDS011;52677;50.898;10.854;2024-02-21T09:00:31;6.78;;;4.00;;
65896;SDS011;52677;50.898;10.854;2024-02-21T09:02:32;8.35;;;4.43;;
65896;SDS011;52677;50.898;10.854;2024-02-21T09:04:32;9.32;;;4.45;;
65896;SDS011;52677;50.898;10.854;2024-02-21T09:06:33;8.00;;;3.95;;
65896;SDS011;52677;50.898;10.854;2024-02-21T09:08:36;7.85;;;4.07;;
65896;SDS011;52677;50.898;10.854;2024-02-21T09:10:36;9.02;;;4.60;;
65896;SDS011;52677;50.898;10.854;2024-02-21T09:12:37;5.47;;;3.55;;
65896;SDS011;52677;50.898;10.854;2024-02-21T09:14:37;7.25;;;3.50;;
65896;SDS011;52677;50.898;10.854;2024-02-21T09:16:40;5.05;;;3.55;;
65896;SDS011;52677;50.898;10.854;2024-02-21T09:18:41;8.50;;;4.15;;
65896;SDS011;52677;50.898;10.854;2024-02-21T09:20:41;7.80;;;3.80;;
65896;SDS011;52677;50.898;10.854;2024-02-21T09:22:41;5.10;;;3.85;;
65896;SDS011;52677;50.898;10.854;2024-02-21T09:24:42;8.82;;;3.88;;
65896;SDS011;52677;50.898;10.854;2024-02-21T09:26:42;5.25;;;3.47;;
65896;SDS011;52677;50.898;10.854;2024-02-21T09:28:43;7.22;;;4.53;;
65896;SDS011;52677;50.898;10.854;2024-02-21T09:30:46;9.57;;;5.03;;
65896;SDS011;52677;50.898;10.854;2024-02-21T09:32:47;8.80;;;4.78;;
65896;SDS011;52677;50.898;10.854;2024-02-21T09:34:48;10.05;;;5.22;;
65896;SDS011;52677;50.898;10.854;2024-02-21T09:36:48;6.47;;;4.18;;
65896;SDS011;52677;50.898;10.854;2024-02-21T09:38:48;9.43;;;4.35;;
65896;SDS011;52677;50.898;10.854;2024-02-21T09:41:23;11.60;;;4.32;;
65896;SDS011;52677;50.898;10.854;2024-02-21T09:43:17;8.93;;;4.35;;
65896;SDS011;52677;50.898;10.854;2024-02-21T09:45:21;8.20;;;4.40;;
65896;SDS011;52677;50.898;10.854;2024-02-21T09:47:30;6.00;;;4.13;;
65896;SDS011;52677;50.898;10.854;2024-02-21T09:49:39;8.27;;;4.03;;
65896;SDS011;52677;50.898;10.854;2024-02-21T09:51:41;8.52;;;4.53;;
65896;SDS011;52677;50.898;10.854;2024-02-21T09:53:43;11.68;;;4.72;;
65896;SDS011;52677;50.898;10.854;2024-02-21T09:55:45;8.23;;;4.50;;
65896;SDS011;52677;50.898;10.854;2024-02-21T09:57:47;9.80;;;4.57;;
65896;SDS011;52677;50.898;10.854;2024-02-21T09:59:48;7.15;;;4.45;;
65896;SDS011;52677;50.898;10.854;2024-02-21T10:01:50;7.73;;;4.77;;
65896;SDS011;52677;50.898;10.854;2024-02-21T10:03:51;8.93;;;4.50;;
65896;SDS011;52677;50.898;10.854;2024-02-21T10:05:51;7.40;;;4.53;;
65896;SDS011;52677;50.898;10.854;2024-02-21T10:07:52;7.40;;;4.40;;
65896;SDS011;52677;50.898;10.854;2024-02-21T10:10:05;7.70;;;4.30;;
65896;SDS011;52677;50.898;10.854;2024-02-21T10:12:09;7.43;;;4.35;;
65896;SDS011;52677;50.898;10.854;2024-02-21T10:14:10;9.07;;;5.03;;
65896;SDS011;52677;50.898;10.854;2024-02-21T10:16:11;9.13;;;4.88;;
65896;SDS011;52677;50.898;10.854;2024-02-21T10:18:11;9.02;;;4.60;;
65896;SDS011;52677;50.898;10.854;2024-02-21T10:20:12;12.73;;;4.82;;
65896;SDS011;52677;50.898;10.854;2024-02-21T10:22:14;11.77;;;5.07;;
65896;SDS011;52677;50.898;10.854;2024-02-21T10:24:15;11.70;;;5.60;;
65896;SDS011;52677;50.898;10.854;2024-02-21T10:26:26;8.50;;;4.47;;
65896;SDS011;52677;50.898;10.854;2024-02-21T10:28:26;9.63;;;4.53;;
65896;SDS011;52677;50.898;10.854;2024-02-21T10:30:27;7.13;;;4.25;;
65896;SDS011;52677;50.898;10.854;2024-02-21T10:32:27;13.73;;;4.82;;
65896;SDS011;52677;50.898;10.854;2024-02-21T10:34:28;7.97;;;4.22;;
65896;SDS011;52677;50.898;10.854;2024-02-21T10:36:28;12.50;;;4.93;;
65896;SDS011;52677;50.898;10.854;2024-02-21T10:38:29;6.50;;;4.22;;
65896;SDS011;52677;50.898;10.854;2024-02-21T10:40:29;11.77;;;4.22;;
65896;SDS011;52677;50.898;10.854;2024-02-21T10:42:32;10.02;;;3.90;;
65896;SDS011;52677;50.898;10.854;2024-02-21T10:44:39;5.50;;;3.53;;
65896;SDS011;52677;50.898;10.854;2024-02-21T10:46:40;7.47;;;3.70;;
65896;SDS011;52677;50.898;10.854;2024-02-21T10:48:43;6.80;;;3.67;;
65896;SDS011;52677;50.898;10.854;2024-02-21T10:53:06;7.85;;;3.92;;
65896;SDS011;52677;50.898;10.854;2024-02-21T10:55:21;6.72;;;3.25;;
65896;SDS011;52677;50.898;10.854;2024-02-21T10:57:31;8.38;;;3.42;;
65896;SDS011;52677;50.898;10.854;2024-02-21T10:59:32;10.35;;;3.45;;
65896;SDS011;52677;50.898;10.854;2024-02-21T11:01:33;10.73;;;4.68;;
65896;SDS011;52677;50.898;10.854;2024-02-21T11:03:35;6.32;;;3.50;;
65896;SDS011;52677;50.898;10.854;2024-02-21T11:05:37;11.55;;;4.50;;
65896;SDS011;52677;50.898;10.854;2024-02-21T11:07:38;7.03;;;3.40;;
65896;SDS011;52677;50.898;10.854;2024-02-21T11:09:40;6.73;;;3.60;;
65896;SDS011;52677;50.898;10.854;2024-02-21T11:11:50;9.35;;;3.80;;
65896;SDS011;52677;50.898;10.854;2024-02-21T11:13:51;11.20;;;4.80;;
65896;SDS011;52677;50.898;10.854;2024-02-21T11:15:52;12.90;;;5.93;;
65896;SDS011;52677;50.898;10.854;2024-02-21T11:17:55;6.30;;;3.75;;
65896;SDS011;52677;50.898;10.854;2024-02-21T11:19:56;5.00;;;3.53;;
65896;SDS011;52677;50.898;10.854;2024-02-21T11:21:57;12.63;;;4.88;;
65896;SDS011;52677;50.898;10.854;2024-02-21T11:23:58;9.60;;;3.47;;
65896;SDS011;52677;50.898;10.854;2024-02-21T11:26:08;6.68;;;3.20;;
65896;SDS011;52677;50.898;10.854;2024-02-21T11:28:09;6.28;;;3.60;;
65896;SDS011;52677;50.898;10.854;2024-02-21T11:30:11;7.97;;;3.35;;
65896;SDS011;52677;50.898;10.854;2024-02-21T11:32:15;5.90;;;3.50;;
65896;SDS011;52677;50.898;10.854;2024-02-21T11:34:18;9.82;;;3.85;;
65896;SDS011;52677;50.898;10.854;2024-02-21T11:36:25;6.32;;;3.40;;
65896;SDS011;52677;50.898;10.854;2024-02-21T11:38:26;6.32;;;3.40;;
65896;SDS011;52677;50.898;10.854;2024-02-21T11:40:26;11.15;;;3.65;;
65896;SDS011;52677;50.898;10.854;2024-02-21T11:42:28;5.75;;;3.55;;
65896;SDS011;52677;50.898;10.854;2024-02-21T11:44:29;7.43;;;3.50;;
65896;SDS011;52677;50.898;10.854;2024-02-21T11:46:31;5.32;;;3.17;;
65896;SDS011;52677;50.898;10.854;2024-02-21T11:48:31;4.60;;;2.92;;
65896;SDS011;52677;50.898;10.854;2024-02-21T11:50:32;4.07;;;2.88;;
65896;SDS011;52677;50.898;10.854;2024-02-21T11:52:33;5.28;;;2.88;;
65896;SDS011;52677;50.898;10.854;2024-02-21T11:54:34;8.23;;;3.33;;
65896;SDS011;52677;50.898;10.854;2024-02-21T11:56:35;5.40;;;3.08;;
65896;SDS011;52677;50.898;10.854;2024-02-21T11:58:35;6.90;;;3.38;;